| time (UTC) | temp F | wind direction | speed knots | gust knots | rain 1hr in | rain 24hr in | rain mn in | humidity % | barometer mb |
| 20260504050259 | 50 | 150 | 0.0 | 0.0 | 0.00 | 0.00 | 0.00 | 80 | 1006.3 |
| 20260504045756 | 50 | 150 | 0.0 | 0.0 | 0.00 | 0.00 | 0.00 | 80 | 1006.0 |
| 20260504045251 | 51 | 151 | 0.0 | 0.0 | 0.00 | 0.00 | 0.00 | 78 | 1006.3 |
| 20260504044748 | 51 | 151 | 0.0 | 0.0 | 0.00 | 0.00 | 0.00 | 78 | 1006.1 |
| 20260504044246 | 50 | 151 | 0.0 | 0.0 | 0.00 | 0.00 | 0.00 | 79 | 1006.2 |
| 20260504043743 | 51 | 151 | 0.0 | 0.0 | 0.00 | 0.00 | 0.00 | 79 | 1006.5 |
| 20260504043240 | 50 | 151 | 0.0 | 0.0 | 0.00 | 0.00 | 0.00 | 78 | 1006.4 |
| 20260504042738 | 50 | 151 | 0.0 | 0.0 | 0.00 | 0.00 | 0.00 | 81 | 1006.4 |
| 20260504042234 | 49 | 151 | 0.0 | 0.0 | 0.00 | 0.00 | 0.00 | 82 | 1006.4 |
| 20260504041730 | 49 | 151 | 0.0 | 0.0 | 0.00 | 0.00 | 0.00 | 82 | 1006.5 |
| 20260504041226 | 48 | 151 | 0.0 | 0.0 | 0.00 | 0.00 | 0.00 | 84 | 1006.6 |
| 20260504040722 | 48 | 151 | 0.0 | 0.0 | 0.00 | 0.00 | 0.00 | 83 | 1006.8 |
| 20260504040220 | 48 | 151 | 0.0 | 0.0 | 0.00 | 0.00 | 0.00 | 82 | 1006.6 |
| 20260504035716 | 49 | 151 | 0.0 | 0.0 | 0.00 | 0.00 | 0.00 | 82 | 1006.5 |
| 20260504035214 | 49 | 151 | 0.0 | 0.0 | 0.00 | 0.00 | 0.00 | 82 | 1006.8 |
| 20260504034711 | 49 | 151 | 0.0 | 0.0 | 0.00 | 0.00 | 0.00 | 81 | 1006.8 |
| 20260504034208 | 49 | 151 | 0.0 | 0.0 | 0.00 | 0.00 | 0.00 | 80 | 1006.6 |
| 20260504033705 | 50 | 151 | 0.0 | 0.0 | 0.00 | 0.00 | 0.00 | 80 | 1006.8 |
| 20260504033202 | 50 | 151 | 0.0 | 0.0 | 0.00 | 0.00 | 0.00 | 79 | 1006.8 |
| 20260504032659 | 50 | 151 | 0.0 | 0.0 | 0.00 | 0.00 | 0.00 | 78 | 1006.6 |
| 20260504032156 | 51 | 151 | 0.0 | 0.0 | 0.00 | 0.00 | 0.00 | 78 | 1006.9 |
| 20260504031653 | 51 | 151 | 0.0 | 0.0 | 0.00 | 0.00 | 0.00 | 77 | 1006.8 |
| 20260504031149 | 51 | 151 | 0.0 | 0.0 | 0.00 | 0.00 | 0.00 | 75 | 1006.9 |
| 20260504030646 | 52 | 151 | 0.0 | 0.0 | 0.00 | 0.00 | 0.00 | 75 | 1007.1 |
| 20260504030143 | 52 | 151 | 0.0 | 0.0 | 0.00 | 0.00 | 0.00 | 73 | 1006.8 |
| 20260504025640 | 52 | 151 | 0.0 | 0.0 | 0.00 | 0.00 | 0.00 | 75 | 1007.1 |
| 20260504025137 | 52 | 151 | 0.0 | 0.0 | 0.00 | 0.00 | 0.00 | 74 | 1006.9 |
| 20260504024634 | 53 | 151 | 0.0 | 0.0 | 0.00 | 0.00 | 0.00 | 76 | 1006.9 |
| 20260504024130 | 53 | 152 | 0.0 | 0.0 | 0.00 | 0.00 | 0.00 | 74 | 1006.7 |
| 20260504023627 | 53 | 152 | 0.0 | 0.0 | 0.00 | 0.00 | 0.00 | 73 | 1006.7 |
| 20260504023123 | 53 | 152 | 0.0 | 0.0 | 0.00 | 0.00 | 0.00 | 71 | 1006.8 |
| 20260504022620 | 54 | 153 | 0.0 | 0.0 | 0.00 | 0.00 | 0.00 | 71 | 1006.7 |
| 20260504022116 | 55 | 154 | 0.0 | 0.0 | 0.00 | 0.00 | 0.00 | 69 | 1006.7 |
| 20260504021614 | 55 | 159 | 0.0 | 0.0 | 0.00 | 0.00 | 0.00 | 68 | 1006.5 |
| 20260504021110 | 55 | 178 | 0.0 | 0.0 | 0.00 | 0.00 | 0.00 | 65 | 1006.5 |
| 20260504020607 | 56 | 146 | 0.0 | 0.0 | 0.00 | 0.00 | 0.00 | 67 | 1006.4 |
| 20260504020103 | 57 | 146 | 0.0 | 0.0 | 0.00 | 0.00 | 0.00 | 64 | 1006.3 |
| 20260504015600 | 57 | 145 | 0.0 | 0.9 | 0.00 | 0.00 | 0.00 | 63 | 1006.0 |
| 20260504015056 | 57 | 146 | 0.0 | 0.0 | 0.00 | 0.00 | 0.00 | 65 | 1006.2 |
| 20260504014552 | 57 | 145 | 0.0 | 0.0 | 0.00 | 0.00 | 0.00 | 63 | 1005.8 |
| 20260504014050 | 56 | 147 | 0.0 | 0.0 | 0.00 | 0.00 | 0.00 | 65 | 1006.2 |
| 20260504013547 | 56 | 147 | 0.0 | 0.0 | 0.00 | 0.00 | 0.00 | 66 | 1005.9 |
| 20260504013044 | 56 | 151 | 0.0 | 0.0 | 0.00 | 0.00 | 0.00 | 63 | 1006.1 |
| 20260504012541 | 55 | 163 | 0.0 | 0.0 | 0.00 | 0.00 | 0.00 | 67 | 1006.1 |
| 20260504012039 | 56 | 150 | 0.0 | 0.0 | 0.00 | 0.00 | 0.00 | 66 | 1006.0 |
| 20260504011536 | 56 | 150 | 0.0 | 0.9 | 0.00 | 0.00 | 0.00 | 68 | 1006.1 |
| 20260504011032 | 56 | 150 | 0.0 | 0.0 | 0.00 | 0.00 | 0.00 | 64 | 1006.0 |
| 20260504010527 | 56 | 150 | 0.0 | 0.0 | 0.00 | 0.00 | 0.00 | 62 | 1006.1 |
| 20260504010024 | 57 | 150 | 0.0 | 0.0 | 0.00 | 0.00 | 0.00 | 61 | 1006.2 |
| 20260504005521 | 59 | 150 | 0.0 | 0.0 | 0.00 | 0.00 | 0.00 | 62 | 1006.0 |
| 20260504005018 | 60 | 150 | 0.9 | 0.9 | 0.00 | 0.00 | 0.00 | 59 | 1005.7 |
| 20260504004516 | 60 | 149 | 0.9 | 0.9 | 0.00 | 0.00 | 0.00 | 57 | 1005.9 |
| 20260504004013 | 59 | 149 | 0.0 | 0.0 | 0.00 | 0.00 | 0.00 | 60 | 1006.1 |
| 20260504003509 | 60 | 149 | 0.0 | 0.0 | 0.00 | 0.00 | 0.00 | 60 | 1006.1 |
| 20260504003006 | 62 | 149 | 0.0 | 0.0 | 0.00 | 0.00 | 0.00 | 56 | 1005.9 |
| 20260504002503 | 63 | 149 | 0.9 | 0.9 | 0.00 | 0.00 | 0.00 | 52 | 1005.8 |
| 20260504002000 | 64 | 153 | 0.0 | 0.0 | 0.00 | 0.00 | 0.00 | 47 | 1005.8 |
| 20260504001457 | 65 | 170 | 0.0 | 0.9 | 0.00 | 0.00 | 0.00 | 46 | 1006.1 |
| 20260504000953 | 66 | 227 | 0.0 | 0.9 | 0.00 | 0.00 | 0.00 | 42 | 1006.2 |
| 20260504000451 | 66 | 201 | 0.9 | 1.7 | 0.00 | 0.00 | 0.00 | 41 | 1006.2 |
| 20260503235948 | 67 | 259 | 1.7 | 1.7 | 0.00 | 0.00 | 0.00 | 40 | 1006.2 |
| 20260503235446 | 67 | 214 | 0.9 | 0.9 | 0.00 | 0.00 | 0.00 | 39 | 1006.5 |
| 20260503234943 | 68 | 176 | 1.7 | 2.6 | 0.00 | 0.00 | 0.00 | 38 | 1006.5 |
| 20260503234440 | 68 | 211 | 2.6 | 2.6 | 0.00 | 0.00 | 0.00 | 38 | 1006.5 |
| 20260503233938 | 68 | 254 | 2.6 | 2.6 | 0.00 | 0.00 | 0.00 | 37 | 1006.4 |
| 20260503233434 | 69 | 324 | 0.9 | 1.7 | 0.00 | 0.00 | 0.00 | 37 | 1006.5 |
| 20260503232931 | 69 | 322 | 1.7 | 1.7 | 0.00 | 0.00 | 0.00 | 39 | 1006.4 |
| 20260503232428 | 69 | 224 | 2.6 | 2.6 | 0.00 | 0.00 | 0.00 | 38 | 1006.4 |
| 20260503231926 | 69 | 301 | 1.7 | 4.3 | 0.00 | 0.00 | 0.00 | 38 | 1006.4 |
| 20260503231423 | 69 | 336 | 4.3 | 6.1 | 0.00 | 0.00 | 0.00 | 38 | 1006.4 |
| 20260503230919 | 69 | 208 | 1.7 | 1.7 | 0.00 | 0.00 | 0.00 | 37 | 1006.5 |
| 20260503230416 | 69 | 203 | 1.7 | 2.6 | 0.00 | 0.00 | 0.00 | 38 | 1006.3 |
| 20260503225914 | 69 | 334 | 4.3 | 6.1 | 0.00 | 0.00 | 0.00 | 37 | 1006.5 |
| 20260503225410 | 68 | 275 | 1.7 | 1.7 | 0.00 | 0.00 | 0.00 | 38 | 1006.5 |
| 20260503224906 | 69 | 310 | 3.5 | 4.3 | 0.00 | 0.00 | 0.00 | 37 | 1006.7 |
| 20260503224403 | 69 | 334 | 4.3 | 5.2 | 0.00 | 0.00 | 0.00 | 37 | 1006.8 |
| 20260503223901 | 69 | 274 | 3.5 | 5.2 | 0.00 | 0.00 | 0.00 | 37 | 1007.1 |
| 20260503223359 | 69 | 244 | 2.6 | 2.6 | 0.00 | 0.00 | 0.00 | 36 | 1007.1 |
| 20260503222853 | 69 | 314 | 1.7 | 1.7 | 0.00 | 0.00 | 0.00 | 36 | 1007.3 |
| 20260503222353 | 69 | 222 | 0.9 | 1.7 | 0.00 | 0.00 | 0.00 | 36 | 1007.3 |
| 20260503221850 | 69 | 224 | 1.7 | 1.7 | 0.00 | 0.00 | 0.00 | 36 | 1007.2 |
| 20260503221349 | 69 | 255 | 3.5 | 4.3 | 0.00 | 0.00 | 0.00 | 36 | 1007.5 |
| 20260503220844 | 68 | 252 | 0.9 | 1.7 | 0.00 | 0.00 | 0.00 | 38 | 1007.4 |
| 20260503220341 | 69 | 273 | 3.5 | 6.1 | 0.00 | 0.00 | 0.00 | 34 | 1007.5 |
| 20260503215838 | 68 | 313 | 2.6 | 4.3 | 0.00 | 0.00 | 0.00 | 37 | 1007.4 |
| 20260503215336 | 69 | 301 | 4.3 | 6.1 | 0.00 | 0.00 | 0.00 | 35 | 1007.7 |
| 20260503214833 | 68 | 324 | 3.5 | 4.3 | 0.00 | 0.00 | 0.00 | 35 | 1007.5 |
| 20260503214330 | 70 | 268 | 2.6 | 4.3 | 0.00 | 0.00 | 0.00 | 35 | 1007.7 |
| 20260503213827 | 69 | 273 | 1.7 | 1.7 | 0.00 | 0.00 | 0.00 | 36 | 1007.7 |
| 20260503213325 | 69 | 249 | 3.5 | 5.2 | 0.00 | 0.00 | 0.00 | 36 | 1007.7 |
| 20260503212822 | 69 | 160 | 1.7 | 1.7 | 0.00 | 0.00 | 0.00 | 36 | 1007.8 |
| 20260503212320 | 68 | 238 | 1.7 | 1.7 | 0.00 | 0.00 | 0.00 | 35 | 1007.9 |
| 20260503211817 | 69 | 285 | 4.3 | 6.1 | 0.00 | 0.00 | 0.00 | 36 | 1008.0 |
| 20260503211313 | 69 | 329 | 1.7 | 1.7 | 0.00 | 0.00 | 0.00 | 35 | 1008.1 |
| 20260503210813 | 69 | 173 | 2.6 | 4.3 | 0.00 | 0.00 | 0.00 | 33 | 1007.9 |
| 20260503210311 | 69 | 226 | 0.9 | 1.7 | 0.00 | 0.00 | 0.00 | 34 | 1007.9 |
| 20260503205806 | 68 | 291 | 5.2 | 6.1 | 0.00 | 0.00 | 0.00 | 34 | 1008.1 |
| 20260503205304 | 68 | 311 | 4.3 | 5.2 | 0.00 | 0.00 | 0.00 | 37 | 1008.0 |
| 20260503204759 | 70 | 296 | 3.5 | 4.3 | 0.00 | 0.00 | 0.00 | 34 | 1008.4 |
| 20260503204257 | 69 | 342 | 0.9 | 1.7 | 0.00 | 0.00 | 0.00 | 37 | 1008.1 |
| 20260503203754 | 70 | 302 | 5.2 | 6.1 | 0.00 | 0.00 | 0.00 | 35 | 1008.4 |
| 20260503203251 | 69 | 194 | 0.0 | 0.0 | 0.00 | 0.00 | 0.00 | 35 | 1008.5 |
| 20260503202748 | 67 | 328 | 4.3 | 6.1 | 0.00 | 0.00 | 0.00 | 38 | 1008.7 |
| 20260503202246 | 68 | 341 | 7.0 | 11.3 | 0.00 | 0.00 | 0.00 | 37 | 1008.7 |
| 20260503201744 | 68 | 325 | 2.6 | 4.3 | 0.00 | 0.00 | 0.00 | 38 | 1008.8 |
| 20260503201241 | 68 | 289 | 2.6 | 2.6 | 0.00 | 0.00 | 0.00 | 39 | 1008.9 |
| 20260503200738 | 68 | 31 | 1.7 | 2.6 | 0.00 | 0.00 | 0.00 | 36 | 1008.9 |
| 20260503200234 | 69 | 270 | 4.3 | 5.2 | 0.00 | 0.00 | 0.00 | 37 | 1008.9 |
| 20260503195731 | 68 | 224 | 0.9 | 1.7 | 0.00 | 0.00 | 0.00 | 38 | 1009.3 |
| 20260503195228 | 68 | 226 | 1.7 | 1.7 | 0.00 | 0.00 | 0.00 | 38 | 1009.2 |
| 20260503194726 | 68 | 198 | 1.7 | 2.6 | 0.00 | 0.00 | 0.00 | 38 | 1009.3 |
| 20260503194221 | 68 | 144 | 0.9 | 0.9 | 0.00 | 0.00 | 0.00 | 40 | 1009.4 |
| 20260503193717 | 67 | 271 | 0.9 | 1.7 | 0.00 | 0.00 | 0.00 | 39 | 1009.5 |
| 20260503193214 | 67 | 308 | 2.6 | 2.6 | 0.00 | 0.00 | 0.00 | 39 | 1009.7 |
| 20260503192709 | 67 | 175 | 3.5 | 4.3 | 0.00 | 0.00 | 0.00 | 38 | 1009.5 |
| 20260503192205 | 67 | 195 | 0.9 | 1.7 | 0.00 | 0.00 | 0.00 | 43 | 1009.5 |
| 20260503191702 | 67 | 237 | 0.9 | 1.7 | 0.00 | 0.00 | 0.00 | 38 | 1009.7 |
| 20260503191159 | 67 | 139 | 2.6 | 4.3 | 0.00 | 0.00 | 0.00 | 37 | 1009.9 |
| 20260503190655 | 67 | 158 | 3.5 | 5.2 | 0.00 | 0.00 | 0.00 | 39 | 1009.8 |
| 20260503190152 | 67 | 99 | 0.9 | 1.7 | 0.00 | 0.00 | 0.00 | 38 | 1009.7 |
| 20260503185649 | 66 | 226 | 1.7 | 2.6 | 0.00 | 0.00 | 0.00 | 44 | 1010.2 |
| 20260503185144 | 65 | 99 | 0.9 | 0.9 | 0.00 | 0.00 | 0.00 | 38 | 1010.2 |
| 20260503184639 | 65 | 295 | 2.6 | 4.3 | 0.00 | 0.00 | 0.00 | 41 | 1010.3 |
| 20260503184136 | 66 | 0 | 3.5 | 4.3 | 0.00 | 0.00 | 0.00 | 39 | 1010.5 |
| 20260503183632 | 66 | 233 | 2.6 | 2.6 | 0.00 | 0.00 | 0.00 | 39 | 1010.2 |
| 20260503183130 | 64 | 109 | 0.0 | 0.9 | 0.00 | 0.00 | 0.00 | 43 | 1010.5 |
| 20260503182628 | 64 | 106 | 2.6 | 2.6 | 0.00 | 0.00 | 0.00 | 42 | 1010.3 |
| 20260503182126 | 65 | 181 | 2.6 | 2.6 | 0.00 | 0.00 | 0.00 | 44 | 1010.5 |
| 20260503181623 | 65 | 154 | 3.5 | 4.3 | 0.00 | 0.00 | 0.00 | 41 | 1010.5 |
| 20260503181120 | 65 | 110 | 1.7 | 2.6 | 0.00 | 0.00 | 0.00 | 42 | 1010.4 |
| 20260503180617 | 65 | 46 | 0.9 | 0.9 | 0.00 | 0.00 | 0.00 | 41 | 1010.5 |
| 20260503180115 | 64 | 39 | 2.6 | 5.2 | 0.00 | 0.00 | 0.00 | 39 | 1010.9 |
| 20260503175611 | 64 | 295 | 3.5 | 4.3 | 0.00 | 0.00 | 0.00 | 40 | 1010.9 |
| 20260503175108 | 64 | 234 | 2.6 | 2.6 | 0.00 | 0.00 | 0.00 | 41 | 1011.1 |
| 20260503174605 | 64 | 283 | 0.0 | 0.9 | 0.00 | 0.00 | 0.00 | 45 | 1011.0 |
| 20260503174102 | 64 | 358 | 2.6 | 2.6 | 0.00 | 0.00 | 0.00 | 40 | 1011.2 |
| 20260503173556 | 64 | 209 | 2.6 | 4.3 | 0.00 | 0.00 | 0.00 | 42 | 1011.1 |
| 20260503173053 | 63 | 132 | 0.0 | 0.9 | 0.00 | 0.00 | 0.00 | 44 | 1011.1 |
| 20260503172551 | 64 | 188 | 2.6 | 2.6 | 0.00 | 0.00 | 0.00 | 45 | 1011.3 |
| 20260503172048 | 62 | 311 | 2.6 | 2.6 | 0.00 | 0.00 | 0.00 | 40 | 1011.6 |
| 20260503171544 | 63 | 313 | 2.6 | 2.6 | 0.00 | 0.00 | 0.00 | 39 | 1011.4 |
| 20260503171042 | 63 | 162 | 2.6 | 2.6 | 0.00 | 0.00 | 0.00 | 42 | 1011.5 |
| 20260503170538 | 62 | 150 | 3.5 | 4.3 | 0.00 | 0.00 | 0.00 | 41 | 1011.6 |
| 20260503150930 | 58 | 309 | 2.6 | 2.6 | 0.00 | 0.00 | 0.00 | 44 | 1012.8 |
| 20260503150427 | 58 | 304 | 1.7 | 1.7 | 0.00 | 0.00 | 0.00 | 45 | 1012.7 |
| 20260503131320 | 49 | 203 | 0.9 | 0.9 | 0.00 | 0.00 | 0.00 | 89 | 1012.6 |
| 20260503130818 | 48 | 172 | 0.0 | 0.9 | 0.00 | 0.00 | 0.00 | 94 | 1012.5 |
| 20260503130315 | 48 | 191 | 0.0 | 0.9 | 0.00 | 0.00 | 0.00 | 94 | 1012.6 |
| 20260503110708 | 36 | 90 | 0.0 | 0.0 | 0.00 | 0.00 | 0.00 | 99 | 1011.5 |
| 20260503110206 | 36 | 90 | 0.0 | 0.0 | 0.00 | 0.00 | 0.00 | 99 | 1011.4 |
| 20260503100132 | 37 | 90 | 0.0 | 0.0 | 0.00 | 0.00 | 0.00 | 99 | 1011.1 |
| 20260503081521 | 37 | 91 | 0.0 | 0.0 | 0.00 | 0.00 | 0.00 | 98 | 1010.7 |
| 20260503081019 | 38 | 91 | 0.0 | 0.0 | 0.00 | 0.00 | 0.00 | 98 | 1010.7 |
| 20260503080515 | 38 | 91 | 0.0 | 0.0 | 0.00 | 0.00 | 0.00 | 98 | 1010.5 |
| 20260503072449 | 39 | 91 | 0.0 | 0.0 | 0.00 | 0.00 | 0.00 | 98 | 1010.6 |
| 20260503071945 | 39 | 91 | 0.0 | 0.0 | 0.00 | 0.00 | 0.00 | 98 | 1010.5 |
| 20260503071442 | 39 | 91 | 0.0 | 0.0 | 0.00 | 0.00 | 0.00 | 98 | 1010.5 |
| 20260503070939 | 39 | 91 | 0.0 | 0.0 | 0.00 | 0.00 | 0.00 | 98 | 1010.5 |
| 20260503070436 | 39 | 91 | 0.0 | 0.0 | 0.00 | 0.00 | 0.00 | 98 | 1010.6 |